Time;durP1;ratioP1;P1;durP2;ratioP2;P2;SDS_P1;SDS_P2;PMS_P1;PMS_P2;Temp;Humidity;BMP_temperature;BMP_pressure;BME280_temperature;BME280_humidity;BME280_pressure;Samples;Min_cycle;Max_cycle;Signal;HPM_P1;HPM_P2
2023/04/14 00:01:48;;;;;;;9.43;6.50;;;;;;;8.05;100.00;98692.59;5051683;28;20028;-78
2023/04/14 00:04:14;;;;;;;7.65;5.40;;;;;;;7.83;100.00;98656.56;5051496;28;20035;-78
2023/04/14 00:06:39;;;;;;;6.57;5.57;;;;;;;8.06;100.00;98696.88;5051547;28;20061;-78
2023/04/14 00:09:05;;;;;;;7.68;5.18;;;;;;;8.16;100.00;98703.25;5051625;28;20542;-78
2023/04/14 00:11:30;;;;;;;7.43;5.85;;;;;;;8.12;100.00;98696.53;5051281;28;20025;-78
2023/04/14 00:13:56;;;;;;;7.38;5.78;;;;;;;8.21;100.00;98705.59;5051647;28;20041;-78
2023/04/14 00:16:21;;;;;;;6.60;5.90;;;;;;;8.29;100.00;98715.59;5051077;28;20472;-78
2023/04/14 00:18:47;;;;;;;8.57;6.30;;;;;;;8.27;100.00;98709.66;5050213;28;20029;-78
2023/04/14 00:21:12;;;;;;;7.85;5.85;;;;;;;8.15;100.00;98692.97;5051246;28;20025;-78
2023/04/14 00:23:37;;;;;;;6.97;5.95;;;;;;;8.29;100.00;98703.44;5052566;28;20057;-78
2023/04/14 00:26:03;;;;;;;8.57;6.13;;;;;;;8.41;100.00;98718.41;5055207;28;20021;-78
2023/04/14 00:28:29;;;;;;;8.82;5.60;;;;;;;8.46;100.00;98721.59;5054583;28;20032;-78
2023/04/14 00:30:54;;;;;;;7.60;6.03;;;;;;;8.45;100.00;98709.53;5055018;28;20024;-78
2023/04/14 00:33:19;;;;;;;9.63;6.20;;;;;;;8.53;100.00;98713.50;5054709;28;20033;-78
2023/04/14 00:35:45;;;;;;;8.45;5.70;;;;;;;8.43;100.00;98689.78;5055110;28;20029;-78
2023/04/14 00:38:10;;;;;;;6.00;5.25;;;;;;;8.56;100.00;98705.56;5054933;28;20029;-78
2023/04/14 00:40:36;;;;;;;8.90;5.63;;;;;;;8.48;100.00;98698.16;5054859;28;20421;-78
2023/04/14 00:43:01;;;;;;;8.65;6.22;;;;;;;8.40;100.00;98688.19;5054910;28;20025;-78
2023/04/14 00:45:27;;;;;;;7.03;5.18;;;;;;;8.44;100.00;98686.28;5054469;28;20413;-78
2023/04/14 00:47:54;;;;;;;6.32;5.10;;;;;;;8.58;100.00;98701.09;5054952;28;20385;-78
2023/04/14 00:50:20;;;;;;;6.45;5.28;;;;;;;8.44;100.00;98681.91;5054680;28;20028;-78
2023/04/14 00:52:48;;;;;;;9.82;5.55;;;;;;;8.45;100.00;98685.34;5054802;28;20037;-78
2023/04/14 00:55:14;;;;;;;6.07;4.60;;;;;;;8.42;100.00;98680.31;5054414;28;20021;-78
2023/04/14 00:57:40;;;;;;;7.63;5.10;;;;;;;8.53;100.00;98697.91;5054341;28;20025;-78
2023/04/14 01:00:06;;;;;;;6.25;4.82;;;;;;;8.55;100.00;98709.88;5054713;28;20159;-78
2023/04/14 01:02:32;;;;;;;9.65;5.30;;;;;;;8.50;100.00;98694.56;5054651;28;20025;-78
2023/04/14 01:04:57;;;;;;;6.15;4.65;;;;;;;8.51;100.00;98703.16;5054494;28;20037;-78
2023/04/14 01:07:25;;;;;;;6.97;5.38;;;;;;;8.46;100.00;98690.44;5054216;28;20033;-78
2023/04/14 01:09:53;;;;;;;7.65;5.30;;;;;;;8.45;100.00;98688.78;5054361;28;20032;-78
2023/04/14 01:13:00;;;;;;;6.55;5.25;;;;;;;8.33;100.00;98667.81;5053974;28;20106;-78
2023/04/14 01:15:32;;;;;;;9.10;5.88;;;;;;;8.46;100.00;98705.19;5053822;28;20033;-78
2023/04/14 01:18:08;;;;;;;8.50;5.90;;;;;;;8.32;100.00;98672.16;5054180;28;20029;-78
2023/04/14 01:20:40;;;;;;;6.63;5.43;;;;;;;8.35;100.00;98671.16;5053874;28;20025;-78
2023/04/14 01:23:34;;;;;;;8.15;5.55;;;;;;;8.35;100.00;98682.38;5054115;28;20028;-78
2023/04/14 01:26:25;;;;;;;7.00;5.88;;;;;;;8.41;100.00;98694.22;5054022;28;20420;-78
2023/04/14 01:29:03;;;;;;;7.78;6.25;;;;;;;8.43;100.00;98700.19;5053932;28;20044;-78
2023/04/14 01:31:41;;;;;;;8.65;6.80;;;;;;;8.28;100.00;98681.03;5053905;28;20021;-78
2023/04/14 01:34:32;;;;;;;7.80;6.75;;;;;;;8.27;100.00;98689.72;5053424;28;20481;-78
2023/04/14 01:37:04;;;;;;;6.13;5.55;;;;;;;8.29;100.00;98698.25;5053657;28;20411;-78
2023/04/14 01:39:32;;;;;;;;;;;;;;;8.34;100.00;98708.38;5053895;28;20036;-78
2023/04/14 01:41:57;;;;;;;7.68;6.18;;;;;;;8.37;100.00;98701.31;5053793;28;19912;-78
2023/04/14 01:44:24;;;;;;;7.15;6.18;;;;;;;8.35;100.00;98691.94;5053557;28;20533;-78
2023/04/14 01:46:55;;;;;;;7.43;6.38;;;;;;;8.29;100.00;98679.25;5053726;28;20223;-78
2023/04/14 01:49:22;;;;;;;9.68;6.45;;;;;;;8.46;100.00;98711.22;5053377;28;20033;-78
2023/04/14 01:51:48;;;;;;;7.97;6.45;;;;;;;8.40;100.00;98697.75;5053421;28;20067;-78
2023/04/14 01:54:16;;;;;;;8.52;6.85;;;;;;;8.47;100.00;98710.31;5053413;28;20461;-78
2023/04/14 01:56:44;;;;;;;7.60;6.80;;;;;;;8.40;100.00;98697.75;5053357;28;20075;-78
2023/04/14 01:59:11;;;;;;;7.88;6.60;;;;;;;8.47;100.00;98692.16;5053520;28;20025;-78
2023/04/14 02:01:38;;;;;;;6.90;6.13;;;;;;;8.47;100.00;98686.97;5053212;28;20068;-78
2023/04/14 02:04:05;;;;;;;11.10;7.90;;;;;;;8.35;100.00;98668.56;5053197;28;20044;-78
2023/04/14 02:06:33;;;;;;;9.50;7.65;;;;;;;8.35;100.00;98665.97;5053371;28;20033;-78
2023/04/14 02:09:04;;;;;;;9.48;7.82;;;;;;;8.42;100.00;98685.50;5053431;28;20029;-78
2023/04/14 02:11:33;;;;;;;7.90;7.10;;;;;;;8.36;100.00;98671.06;5053096;28;20037;-78
2023/04/14 02:14:00;;;;;;;9.27;8.35;;;;;;;8.30;100.00;98654.97;5053176;28;20041;-78
2023/04/14 02:16:26;;;;;;;9.43;7.72;;;;;;;8.43;100.00;98676.81;5052793;28;20491;-78
2023/04/14 02:18:52;;;;;;;9.20;8.18;;;;;;;8.25;100.00;98665.59;5052875;28;20029;-78
2023/04/14 02:21:21;;;;;;;13.48;9.55;;;;;;;8.21;100.00;98666.69;5052598;28;20082;-78
2023/04/14 02:23:47;;;;;;;9.60;8.18;;;;;;;8.18;100.00;98661.69;5053034;28;20032;-78
2023/04/14 02:26:17;;;;;;;13.63;8.77;;;;;;;8.25;100.00;98671.63;5052986;28;20155;-78
2023/04/14 02:28:49;;;;;;;12.93;9.55;;;;;;;8.25;100.00;98671.63;5052752;28;20488;-78
2023/04/14 02:31:22;;;;;;;11.63;9.85;;;;;;;8.18;100.00;98648.72;5052787;28;20439;-78
2023/04/14 02:33:52;;;;;;;18.58;11.93;;;;;;;8.35;100.00;98677.19;5052561;28;20067;-78
2023/04/14 02:36:32;;;;;;;17.33;11.55;;;;;;;8.20;100.00;98652.88;5052805;28;20148;-78
2023/04/14 02:39:03;;;;;;;14.70;11.60;;;;;;;8.26;100.00;98659.53;5052554;28;20043;-78
2023/04/14 02:41:30;;;;;;;13.50;11.32;;;;;;;8.34;100.00;98672.06;5052378;28;20136;-78
2023/04/14 02:44:17;;;;;;;14.23;10.93;;;;;;;8.36;100.00;98667.66;5052412;28;20033;-78
2023/04/14 02:47:02;;;;;;;16.40;11.68;;;;;;;8.38;100.00;98671.00;5051809;28;20486;-78
2023/04/14 02:49:31;;;;;;;14.80;12.65;;;;;;;8.23;100.00;98647.53;5052184;28;20428;-78
2023/04/14 02:51:56;;;;;;;19.38;14.68;;;;;;;8.30;100.00;98666.22;5052400;28;20112;-78
2023/04/14 02:54:23;;;;;;;20.80;14.02;;;;;;;8.28;100.00;98664.63;5052141;28;20508;-78
2023/04/14 02:56:49;;;;;;;17.05;13.13;;;;;;;8.09;100.00;98638.78;5052206;28;20029;-78
2023/04/14 02:59:16;;;;;;;17.33;13.38;;;;;;;8.22;100.00;98653.66;5052208;28;20033;-78
2023/04/14 03:01:42;;;;;;;21.95;15.75;;;;;;;8.23;100.00;98655.31;5052131;28;20021;-78
2023/04/14 03:04:08;;;;;;;19.33;14.98;;;;;;;8.14;100.00;98642.00;5052174;28;20033;-78
2023/04/14 03:06:37;;;;;;;24.20;17.20;;;;;;;8.10;100.00;98637.91;5051961;28;20039;-78
2023/04/14 03:09:03;;;;;;;23.02;16.65;;;;;;;8.17;100.00;98654.78;5052089;28;20048;-78
2023/04/14 03:11:31;;;;;;;24.15;18.65;;;;;;;8.28;100.00;98673.25;5052080;28;20040;-78
2023/04/14 03:13:57;;;;;;;21.52;16.90;;;;;;;8.24;100.00;98662.19;5052135;28;20033;-78
2023/04/14 03:16:24;;;;;;;24.65;18.88;;;;;;;8.13;100.00;98650.69;5052059;28;20041;-78
2023/04/14 03:18:51;;;;;;;28.20;19.65;;;;;;;8.19;100.00;98659.00;5052134;28;20071;-78
2023/04/14 03:21:18;;;;;;;30.33;20.38;;;;;;;8.23;100.00;98664.88;5052017;28;20025;-78
2023/04/14 03:23:45;;;;;;;26.02;18.20;;;;;;;8.20;100.00;98662.44;5051561;28;20064;-78
2023/04/14 03:26:14;;;;;;;25.90;18.80;;;;;;;8.13;100.00;98645.50;5052101;28;20029;-78
2023/04/14 03:28:41;;;;;;;28.20;18.27;;;;;;;8.03;100.00;98627.00;5051490;28;20053;-78
2023/04/14 03:31:09;;;;;;;28.55;20.30;;;;;;;8.21;100.00;98669.28;5051958;28;20029;-78
2023/04/14 03:33:37;;;;;;;31.70;20.50;;;;;;;8.18;100.00;98662.53;5051525;28;20037;-78
2023/04/14 03:36:03;;;;;;;25.33;18.70;;;;;;;8.14;100.00;98670.53;5051758;28;20071;-78
2023/04/14 03:38:32;;;;;;;28.63;18.92;;;;;;;8.00;100.00;98648.72;5051525;28;20033;-78
2023/04/14 03:40:58;;;;;;;29.10;19.88;;;;;;;7.95;100.00;98632.59;5051717;28;20075;-78
2023/04/14 03:43:27;;;;;;;32.47;20.80;;;;;;;8.11;100.00;98657.72;5051519;28;20115;-78
2023/04/14 03:45:52;;;;;;;27.75;18.58;;;;;;;8.11;100.00;98655.13;5052085;28;20029;-78
2023/04/14 03:48:19;;;;;;;28.88;20.15;;;;;;;8.06;100.00;98632.03;5051699;28;20116;-78
2023/04/14 03:50:50;;;;;;;37.28;21.77;;;;;;;8.09;100.00;98646.56;5051400;28;20444;-78
2023/04/14 03:53:17;;;;;;;33.55;22.90;;;;;;;8.10;100.00;98649.13;5051775;28;20037;-78
2023/04/14 03:55:45;;;;;;;31.00;21.90;;;;;;;7.98;100.00;98660.13;5051526;28;20036;-78
2023/04/14 03:58:12;;;;;;;32.15;21.75;;;;;;;7.95;100.00;98655.09;5053847;28;20025;-78
2023/04/14 04:00:38;;;;;;;32.10;22.50;;;;;;;7.93;100.00;98650.00;5055255;28;20021;-78
2023/04/14 04:03:04;;;;;;;26.42;20.25;;;;;;;7.90;100.00;98641.53;5055497;28;20037;-78
2023/04/14 04:05:32;;;;;;;29.58;21.10;;;;;;;7.99;100.00;98636.69;5055218;28;20021;-78
2023/04/14 04:08:02;;;;;;;36.00;22.98;;;;;;;8.07;100.00;98638.06;5055640;28;20029;-78
2023/04/14 04:10:32;;;;;;;33.33;22.95;;;;;;;8.10;100.00;98641.34;5055310;28;20052;-78
2023/04/14 04:12:58;;;;;;;34.55;23.67;;;;;;;8.05;100.00;98625.19;5054105;28;20031;-78
2023/04/14 04:15:27;;;;;;;34.67;23.25;;;;;;;8.13;100.00;98637.72;5055352;28;20043;-78
2023/04/14 04:17:52;;;;;;;30.20;22.05;;;;;;;8.00;100.00;98628.00;5055134;28;20052;-78
2023/04/14 04:20:20;;;;;;;35.65;23.55;;;;;;;7.99;100.00;98634.09;5055693;28;20464;-78
2023/04/14 04:22:48;;;;;;;31.50;23.02;;;;;;;7.99;100.00;98638.44;5054841;28;20373;-78
2023/04/14 04:25:14;;;;;;;31.27;22.67;;;;;;;8.03;100.00;98652.94;5055412;28;20025;-78
2023/04/14 04:27:40;;;;;;;34.58;24.08;;;;;;;7.99;100.00;98636.69;5054965;28;20032;-78
2023/04/14 04:30:09;;;;;;;36.72;25.10;;;;;;;8.05;100.00;98656.31;5055390;28;20131;-78
2023/04/14 04:32:36;;;;;;;37.40;26.25;;;;;;;7.90;100.00;98611.25;5055147;28;20468;-78
2023/04/14 04:35:05;;;;;;;46.03;29.20;;;;;;;7.96;100.00;98621.31;5055036;28;20045;-78
2023/04/14 04:37:32;;;;;;;40.42;28.38;;;;;;;7.90;100.00;98608.66;5054929;28;20025;-78
2023/04/14 04:39:57;;;;;;;39.65;27.30;;;;;;;8.00;100.00;98627.16;5054960;28;20111;-78
2023/04/14 04:42:23;;;;;;;40.55;27.35;;;;;;;7.94;100.00;98619.72;5054820;28;20528;-78
2023/04/14 04:44:48;;;;;;;36.72;26.60;;;;;;;7.87;100.00;98608.81;5054538;28;20029;-78
2023/04/14 04:47:14;;;;;;;38.63;27.63;;;;;;;7.96;100.00;98610.94;5054691;28;20039;-78
2023/04/14 04:49:40;;;;;;;46.58;31.90;;;;;;;7.99;100.00;98620.31;5054639;28;20539;-78
2023/04/14 04:52:05;;;;;;;45.92;33.53;;;;;;;7.94;100.00;98610.19;5054701;28;20025;-78
2023/04/14 04:54:30;;;;;;;49.80;36.50;;;;;;;7.96;100.00;98599.72;5054512;28;20067;-78
2023/04/14 04:56:57;;;;;;;39.90;28.17;;;;;;;7.90;100.00;98597.44;5054597;28;20032;-78
2023/04/14 04:59:23;;;;;;;35.22;26.67;;;;;;;8.04;100.00;98617.47;5054499;28;20029;-78
2023/04/14 05:01:48;;;;;;;34.85;26.55;;;;;;;8.04;100.00;98605.34;5054158;28;20174;-78
2023/04/14 05:04:13;;;;;;;41.00;27.33;;;;;;;8.09;100.00;98618.91;5054518;28;20040;-78
2023/04/14 05:06:39;;;;;;;43.70;29.95;;;;;;;7.93;100.00;98589.53;5054524;28;20032;-78
2023/04/14 05:09:04;;;;;;;44.58;30.70;;;;;;;8.05;100.00;98598.38;5053690;28;20056;-78
2023/04/14 05:11:31;;;;;;;42.25;29.65;;;;;;;8.09;100.00;98605.94;5054139;28;20025;-78
2023/04/14 05:13:56;;;;;;;46.70;29.67;;;;;;;8.21;100.00;98625.19;5054129;28;20495;-78
2023/04/14 05:16:21;;;;;;;41.75;29.50;;;;;;;8.21;100.00;98623.44;5054122;28;20021;-78
2023/04/14 05:18:47;;;;;;;48.85;34.35;;;;;;;8.17;100.00;98610.69;5054060;28;20033;-78
2023/04/14 05:21:13;;;;;;;44.70;31.17;;;;;;;7.96;100.00;98576.38;5054196;28;20021;-78
2023/04/14 05:23:43;;;;;;;47.53;33.30;;;;;;;8.17;100.00;98623.66;5053845;28;20025;-78
2023/04/14 05:26:09;;;;;;;46.90;31.38;;;;;;;8.21;100.00;98633.81;5054086;28;20388;-78
2023/04/14 05:28:35;;;;;;;51.30;33.63;;;;;;;8.17;100.00;98621.06;5053511;28;20388;-78
2023/04/14 05:31:01;;;;;;;47.80;33.42;;;;;;;8.24;100.00;98636.25;5054180;28;20037;-78
2023/04/14 05:33:26;;;;;;;40.67;29.48;;;;;;;8.30;100.00;98629.91;5053935;28;20108;-78
2023/04/14 05:35:52;;;;;;;43.40;30.00;;;;;;;8.12;100.00;98631.69;5053692;28;20029;-78
2023/04/14 05:38:19;;;;;;;43.03;29.80;;;;;;;8.11;100.00;98640.41;5053904;28;20082;-78
2023/04/14 05:40:45;;;;;;;46.75;30.95;;;;;;;7.98;100.00;98631.59;5052566;28;20427;-78
2023/04/14 05:43:10;;;;;;;47.22;32.33;;;;;;;7.89;100.00;98632.91;5053909;28;20029;-78
2023/04/14 05:45:36;;;;;;;50.50;33.58;;;;;;;7.68;100.00;98616.72;5053529;28;20027;-78
2023/04/14 05:48:02;;;;;;;57.00;35.22;;;;;;;7.91;100.00;98622.44;5053897;28;20079;-77
2023/04/14 05:50:27;;;;;;;52.25;36.67;;;;;;;7.92;100.00;98613.75;5053549;28;20036;-78
2023/04/14 05:52:52;;;;;;;49.70;33.85;;;;;;;7.94;100.00;98617.13;5053492;28;20029;-78
2023/04/14 05:55:18;;;;;;;53.42;34.47;;;;;;;7.91;100.00;98612.91;5053282;28;20361;-78
2023/04/14 05:57:44;;;;;;;52.85;35.78;;;;;;;7.92;100.00;98593.00;5052958;28;20075;-78
2023/04/14 06:00:11;;;;;;;49.70;33.08;;;;;;;7.92;100.00;98622.41;5053366;28;20059;-78
2023/04/14 06:02:37;;;;;;;52.53;34.50;;;;;;;7.84;100.00;98593.44;5052960;28;20021;-78
2023/04/14 06:05:05;;;;;;;51.92;33.70;;;;;;;7.91;100.00;98599.13;5053337;28;20036;-78
2023/04/14 06:07:30;;;;;;;64.15;42.08;;;;;;;7.93;100.00;98597.31;5053267;28;20017;-78
2023/04/14 06:09:56;;;;;;;63.70;40.92;;;;;;;8.02;100.00;98599.41;5053008;28;20051;-78
2023/04/14 06:12:21;;;;;;;57.97;38.03;;;;;;;8.04;100.00;98589.78;5053194;28;20045;-78
2023/04/14 06:14:46;;;;;;;60.97;39.65;;;;;;;8.12;100.00;98605.75;5053185;28;20427;-78
2023/04/14 06:17:12;;;;;;;58.28;36.60;;;;;;;8.05;100.00;98586.28;5053235;28;20404;-78
2023/04/14 06:19:37;;;;;;;63.97;40.75;;;;;;;8.04;100.00;98581.16;5052960;28;20036;-78
2023/04/14 06:22:04;;;;;;;57.92;40.47;;;;;;;8.24;100.00;98594.75;5051829;28;20066;-78
2023/04/14 06:24:31;;;;;;;57.75;40.42;;;;;;;8.36;100.00;98597.59;5052864;28;20381;-78
2023/04/14 06:26:57;;;;;;;58.10;39.72;;;;;;;8.23;100.00;98558.50;5052460;28;20078;-78
2023/04/14 06:29:22;;;;;;;56.42;37.33;;;;;;;8.38;100.00;98578.44;5052719;28;20044;-78
2023/04/14 06:31:50;;;;;;;48.55;33.83;;;;;;;8.43;100.00;98586.84;5052703;28;20369;-78
2023/04/14 06:34:15;;;;;;;47.30;32.47;;;;;;;8.47;100.00;98569.34;5052552;28;20033;-78
2023/04/14 06:36:41;;;;;;;43.08;30.77;;;;;;;8.56;100.00;98583.56;5052694;28;20142;-78
2023/04/14 06:39:06;;;;;;;43.97;29.63;;;;;;;8.44;100.00;98567.75;5052488;28;20111;-78
2023/04/14 06:41:31;;;;;;;46.03;31.27;;;;;;;8.30;100.00;98559.88;5052544;28;20048;-78
2023/04/14 06:43:57;;;;;;;43.15;30.60;;;;;;;8.52;100.00;98577.72;5052442;28;20380;-78
2023/04/14 06:46:22;;;;;;;44.15;29.58;;;;;;;8.29;100.00;98541.78;5052667;28;20067;-78
2023/04/14 06:48:47;;;;;;;41.55;29.33;;;;;;;8.36;100.00;98535.34;5052160;28;20408;-78
2023/04/14 06:51:13;;;;;;;44.30;31.42;;;;;;;8.35;100.00;98531.06;5052377;28;20614;-78
2023/04/14 06:53:38;;;;;;;45.42;31.00;;;;;;;8.29;100.00;98534.81;5052126;28;20071;-78
2023/04/14 06:56:05;;;;;;;44.72;32.45;;;;;;;8.36;100.00;98510.22;5052498;28;20350;-78
2023/04/14 06:58:31;;;;;;;50.45;34.33;;;;;;;8.60;100.00;98544.38;5052231;28;20025;-78
2023/04/14 07:00:58;;;;;;;44.45;30.80;;;;;;;8.62;100.00;98528.72;5052161;28;20108;-78
2023/04/14 07:03:27;;;;;;;42.88;29.77;;;;;;;8.86;100.00;98537.72;5052237;28;20029;-78
2023/04/14 07:05:53;;;;;;;44.58;31.60;;;;;;;8.81;100.00;98495.59;5051949;28;20096;-78
2023/04/14 07:08:19;;;;;;;46.53;33.17;;;;;;;9.21;100.00;98533.06;5052109;28;20132;-78
2023/04/14 07:10:46;;;;;;;43.92;31.60;;;;;;;9.27;100.00;98523.22;5051782;28;20033;-78
2023/04/14 07:13:11;;;;;;;43.92;32.35;;;;;;;8.82;100.00;98481.69;5052085;28;20112;-78
2023/04/14 07:15:36;;;;;;;49.58;33.40;;;;;;;9.16;100.00;98521.28;5052223;28;20104;-78
2023/04/14 07:18:02;;;;;;;49.15;33.78;;;;;;;9.33;100.00;98515.91;5052030;28;20029;-78
2023/04/14 07:20:28;;;;;;;48.88;34.72;;;;;;;9.29;100.00;98522.22;5052322;28;20017;-78
2023/04/14 07:22:54;;;;;;;48.33;34.78;;;;;;;8.82;100.00;98453.13;5051658;28;20040;-78
2023/04/14 07:25:20;;;;;;;47.53;33.88;;;;;;;9.24;100.00;98513.84;5051935;28;20052;-78
2023/04/14 07:27:46;;;;;;;49.90;35.85;;;;;;;9.23;100.00;98520.81;5051921;28;20056;-78
2023/04/14 07:30:11;;;;;;;57.53;39.88;;;;;;;9.03;100.00;98515.97;5051689;28;20056;-78
2023/04/14 07:32:37;;;;;;;55.63;39.25;;;;;;;9.22;100.00;98539.06;5051308;28;20040;-78
2023/04/14 07:35:03;;;;;;;59.78;40.50;;;;;;;9.10;100.00;98511.22;5051768;28;20031;-77
2023/04/14 07:37:29;;;;;;;54.75;39.35;;;;;;;9.22;100.00;98528.69;5051801;28;20028;-78
2023/04/14 07:39:54;;;;;;;54.38;38.30;;;;;;;9.32;100.00;98536.78;5051458;28;20040;-78
2023/04/14 07:42:20;;;;;;;62.42;45.67;;;;;;;9.40;100.00;98545.81;5050553;28;20025;-78
2023/04/14 07:44:45;;;;;;;59.42;41.90;;;;;;;9.41;100.00;98541.44;5051661;28;20059;-78
2023/04/14 07:47:11;;;;;;;66.25;46.03;;;;;;;9.45;100.00;98551.56;5051821;28;20078;-78
2023/04/14 07:49:36;;;;;;;59.90;41.95;;;;;;;9.48;100.00;98542.72;5051549;28;20082;-78
2023/04/14 07:52:02;;;;;;;63.65;46.47;;;;;;;9.42;100.00;98524.91;5051474;28;20388;-78
2023/04/14 07:54:27;;;;;;;62.97;43.78;;;;;;;9.49;100.00;98537.47;5051582;28;20021;-78
2023/04/14 07:56:53;;;;;;;62.90;44.42;;;;;;;9.55;100.00;98541.44;5051597;28;20433;-78
2023/04/14 07:59:18;;;;;;;63.90;45.10;;;;;;;9.46;100.00;98523.81;5051298;28;20029;-78
2023/04/14 08:01:44;;;;;;;64.78;44.97;;;;;;;9.43;100.00;98522.22;5051459;28;20362;-78
2023/04/14 08:04:09;;;;;;;60.33;42.00;;;;;;;9.50;100.00;98536.53;5051367;28;20083;-78
2023/04/14 08:06:35;;;;;;;71.90;47.97;;;;;;;9.49;100.00;98519.25;5051586;28;20021;-78
2023/04/14 08:09:00;;;;;;;67.90;47.78;;;;;;;9.61;100.00;98540.25;5051018;28;20025;-78
2023/04/14 08:11:26;;;;;;;67.03;47.03;;;;;;;9.62;100.00;98534.13;5051636;28;20096;-78
2023/04/14 08:13:51;;;;;;;68.55;47.22;;;;;;;9.51;100.00;98508.75;5051172;28;20120;-78
2023/04/14 08:16:17;;;;;;;72.95;48.30;;;;;;;9.66;100.00;98535.59;5051525;28;20100;-78
2023/04/14 08:18:43;;;;;;;69.28;48.88;;;;;;;9.47;100.00;98528.06;5051279;28;20025;-78
2023/04/14 08:21:09;;;;;;;71.18;49.08;;;;;;;9.57;100.00;98529.19;5051350;28;20021;-78
2023/04/14 08:23:34;;;;;;;72.45;50.17;;;;;;;9.65;100.00;98534.78;5051212;28;20068;-78
2023/04/14 08:26:00;;;;;;;74.95;49.35;;;;;;;9.52;100.00;98509.59;5051022;28;20587;-78
2023/04/14 08:28:27;;;;;;;75.18;50.65;;;;;;;9.62;100.00;98526.31;5050980;28;20104;-78
2023/04/14 08:30:52;;;;;;;80.22;52.55;;;;;;;9.65;100.00;98533.91;5051163;28;20502;-78
2023/04/14 08:33:18;;;;;;;78.32;51.10;;;;;;;9.58;100.00;98514.44;5051284;28;20033;-78
2023/04/14 08:35:43;;;;;;;77.40;52.72;;;;;;;9.74;100.00;98529.00;5050905;28;20032;-78
2023/04/14 08:38:08;;;;;;;80.30;53.13;;;;;;;9.59;100.00;98511.72;5051181;28;20035;-78
2023/04/14 08:40:43;;;;;;;79.68;52.40;;;;;;;9.67;100.00;98526.88;5051458;28;20435;-78
2023/04/14 08:43:09;;;;;;;86.75;53.08;;;;;;;9.81;100.00;98526.03;5051351;28;20116;-78
2023/04/14 08:45:35;;;;;;;79.60;52.85;;;;;;;9.66;100.00;98494.00;5053856;28;20213;-78
2023/04/14 08:48:02;;;;;;;86.60;53.08;;;;;;;9.68;100.00;98495.56;5051337;28;20497;-78
2023/04/14 08:50:35;;;;;;;85.85;55.15;;;;;;;9.84;100.00;98518.03;5051585;28;20021;-78
2023/04/14 08:53:03;;;;;;;89.75;58.03;;;;;;;9.97;100.00;98538.00;5049480;28;20436;-78
2023/04/14 08:55:30;;;;;;;87.00;56.72;;;;;;;9.97;100.00;98522.38;5042388;28;20029;-78
2023/04/14 08:57:56;;;;;;;82.35;54.45;;;;;;;10.03;100.00;98526.38;5054368;28;20065;-78
2023/04/14 09:00:22;;;;;;;86.13;57.03;;;;;;;9.78;100.00;98497.63;5054541;28;20052;-78
2023/04/14 09:02:49;;;;;;;88.88;55.30;;;;;;;10.07;100.00;98534.81;5042606;28;20087;-78
2023/04/14 09:05:14;;;;;;;84.45;56.28;;;;;;;9.86;100.00;98513.56;5034279;28;20022;-78
2023/04/14 09:07:41;;;;;;;87.30;55.42;;;;;;;10.04;100.00;98537.63;5043382;28;20195;-78
2023/04/14 09:10:08;;;;;;;86.95;56.08;;;;;;;10.03;100.00;98528.13;5053762;28;20052;-78
2023/04/14 09:12:35;;;;;;;86.35;56.83;;;;;;;9.89;100.00;98519.41;5054364;28;20044;-78
2023/04/14 09:15:01;;;;;;;84.05;57.20;;;;;;;9.98;100.00;98510.22;5054113;28;20059;-78
2023/04/14 09:17:28;;;;;;;85.63;57.05;;;;;;;10.03;100.00;98517.72;5054209;28;20487;-78
2023/04/14 09:19:53;;;;;;;85.57;57.95;;;;;;;10.08;100.00;98520.91;5053768;28;20032;-78
2023/04/14 09:22:19;;;;;;;88.97;57.42;;;;;;;10.13;100.00;98513.63;5049738;28;20392;-77
2023/04/14 09:24:46;;;;;;;80.05;55.35;;;;;;;10.05;100.00;98498.50;5034633;28;20396;-77
2023/04/14 09:27:11;;;;;;;82.45;55.92;;;;;;;10.28;100.00;98522.25;5043537;28;20033;-77
2023/04/14 09:29:37;;;;;;;81.43;54.25;;;;;;;10.26;100.00;98508.53;5054066;28;20060;-79
2023/04/14 09:32:03;;;;;;;89.35;59.53;;;;;;;10.26;100.00;98506.75;5053685;28;20025;-79
2023/04/14 09:34:29;;;;;;;86.03;59.30;;;;;;;10.37;100.00;98512.13;5053648;28;20464;-79
2023/04/14 09:37:03;;;;;;;84.03;57.60;;;;;;;10.39;100.00;98533.66;5053530;28;20029;-79
2023/04/14 09:39:29;;;;;;;85.57;58.80;;;;;;;10.36;100.00;98522.59;5053715;28;20029;-78
2023/04/14 09:41:54;;;;;;;86.53;61.15;;;;;;;10.41;100.00;98525.78;5053248;28;20036;-79
2023/04/14 09:44:20;;;;;;;85.63;59.22;;;;;;;10.36;100.00;98523.44;5053477;28;20025;-79
2023/04/14 09:47:06;;;;;;;81.82;58.50;;;;;;;10.29;100.00;98516.97;5053214;28;20025;-79
2023/04/14 09:49:32;;;;;;;83.43;59.55;;;;;;;10.19;100.00;98497.63;5053802;28;20032;-79
2023/04/14 09:52:07;;;;;;;88.60;58.50;;;;;;;10.27;100.00;98518.81;5053527;28;20052;-79
2023/04/14 09:54:33;;;;;;;86.20;59.85;;;;;;;10.41;100.00;98521.41;5053650;28;20090;-79
2023/04/14 09:56:58;;;;;;;91.07;60.95;;;;;;;10.58;100.00;98529.91;5053073;28;20415;-79
2023/04/14 09:59:35;;;;;;;81.78;56.50;;;;;;;10.59;100.00;98521.97;5053436;28;20155;-79
2023/04/14 10:02:05;;;;;;;86.32;58.63;;;;;;;10.78;100.00;98519.00;5053402;28;20017;-79
2023/04/14 10:04:31;;;;;;;83.35;60.92;;;;;;;10.85;100.00;98516.84;5053200;28;20438;-79
2023/04/14 10:06:57;;;;;;;77.38;56.38;;;;;;;10.80;100.00;98500.69;5053136;28;20052;-79
2023/04/14 10:09:26;;;;;;;88.60;59.72;;;;;;;10.80;100.00;98491.09;5053122;28;20078;-78
2023/04/14 10:12:12;;;;;;;76.57;58.47;;;;;;;11.03;100.00;98481.75;5053090;28;20357;-78
2023/04/14 10:14:38;;;;;;;81.10;58.72;;;;;;;11.28;100.00;98506.97;5053377;28;20036;-78
2023/04/14 10:17:04;;;;;;;86.13;59.65;;;;;;;11.28;100.00;98483.53;5052985;28;20028;-78
2023/04/14 10:19:29;;;;;;;79.43;58.30;;;;;;;11.57;100.00;98501.56;5053062;28;20029;-78
2023/04/14 10:21:56;;;;;;;77.32;55.20;;;;;;;11.53;99.27;98500.09;5053042;28;20025;-78
2023/04/14 10:24:23;;;;;;;80.55;60.25;;;;;;;11.66;98.49;98495.72;5052794;28;20469;-78
2023/04/14 10:26:48;;;;;;;77.90;57.78;;;;;;;11.84;98.51;98491.00;5052578;28;20427;-78
2023/04/14 10:29:15;;;;;;;72.18;54.22;;;;;;;11.70;97.21;98469.28;5052780;28;20074;-78
2023/04/14 10:31:46;;;;;;;73.93;55.05;;;;;;;11.81;96.88;98486.81;5052959;28;20052;-78
2023/04/14 10:34:13;;;;;;;75.95;56.63;;;;;;;11.93;97.17;98493.81;5052495;28;20032;-78
2023/04/14 10:36:39;;;;;;;75.00;55.97;;;;;;;11.66;96.88;98452.19;5052721;28;20024;-78
2023/04/14 10:39:05;;;;;;;74.35;54.22;;;;;;;11.92;96.61;98473.03;5052415;28;20428;-78
2023/04/14 10:41:47;;;;;;;78.82;57.10;;;;;;;12.21;96.46;98492.66;5052804;28;20025;-78
2023/04/14 10:44:33;;;;;;;75.85;57.30;;;;;;;12.26;97.10;98474.06;5052488;28;20032;-78
2023/04/14 10:47:01;;;;;;;78.13;58.90;;;;;;;12.45;95.81;98500.53;5052243;28;20032;-78
2023/04/14 10:49:35;;;;;;;74.63;56.47;;;;;;;12.35;94.92;98496.91;5052402;28;20078;-78
2023/04/14 10:52:02;;;;;;;74.65;57.92;;;;;;;12.33;95.60;98474.47;5052188;28;20381;-78
2023/04/14 10:54:47;;;;;;;80.05;61.15;;;;;;;12.41;95.07;98486.03;5052540;28;20029;-78
2023/04/14 10:57:17;;;;;;;75.88;57.53;;;;;;;12.16;95.51;98476.50;5052258;28;20032;-78
2023/04/14 10:59:45;;;;;;;74.78;54.33;;;;;;;12.42;94.65;98487.69;5052316;28;20515;-78
2023/04/14 11:02:31;;;;;;;75.22;56.67;;;;;;;12.33;95.46;98445.75;5051938;28;20021;-78
2023/04/14 11:05:09;;;;;;;69.53;55.53;;;;;;;12.57;95.58;98477.06;5052109;28;20376;-78
2023/04/14 11:07:43;;;;;;;80.80;58.42;;;;;;;12.58;95.94;98476.13;5051751;28;20032;-78
2023/04/14 11:10:18;;;;;;;71.65;54.03;;;;;;;12.35;95.36;98486.47;5051981;28;20052;-78
2023/04/14 11:12:45;;;;;;;77.47;58.08;;;;;;;12.32;95.50;98468.41;5052232;28;20071;-78
2023/04/14 11:15:10;;;;;;;80.00;60.95;;;;;;;12.33;96.10;98469.25;5052043;28;20033;-78
2023/04/14 11:17:41;;;;;;;76.03;56.70;;;;;;;12.29;95.42;98471.25;5052148;28;20499;-78
2023/04/14 11:20:13;;;;;;;74.93;55.88;;;;;;;12.28;95.77;98481.81;5051828;28;20025;-78
2023/04/14 11:22:40;;;;;;;71.38;55.75;;;;;;;12.18;95.71;98474.63;5051765;28;20025;-78